METAR Data
IDs: Format: Raw Decoded Include TAF

Data at: 0110 UTC 06 Dec 2019

KMYR 060056Z 00000KT 10SM CLR 07/05 A3020 RMK AO2 SLP226 T00720050
KMYR 052356Z 00000KT 10SM CLR 08/06 A3018 RMK AO2 SLP220 T00830056 10156 20083 53026
KMYR 052256Z 00000KT 10SM CLR 09/05 A3016 RMK AO2 SLP212 T00940050
KMYR 052156Z 16004KT 10SM CLR 12/04 A3013 RMK AO2 SLP201 T01170044
KMYR 052056Z 17005KT 10SM CLR 13/03 A3011 RMK AO2 SLP194 T01330033 53006
KMYR 051956Z 15006KT 10SM CLR 14/03 A3008 RMK AO2 SLP186 T01390033
KMYR 051856Z VRB04KT 10SM CLR 14/02 A3008 RMK AO2 SLP186 T01440017
KMYR 051756Z 26005KT 10SM CLR 16/M02 A3009 RMK AO2 SLP188 T01561017 10156 20061 58001
KMYR 051656Z 32004KT 10SM CLR 14/M02 A3010 RMK AO2 SLP193 T01441017
KMYR 051556Z 01009KT 10SM CLR 13/M02 A3011 RMK AO2 SLP195 T01331022
KMYR 051456Z 35014G19KT 10SM CLR 12/M01 A3009 RMK AO2 SLP189 T01221006 51031
KMYR 051356Z 33010KT 10SM CLR 11/M01 A3006 RMK AO2 SLP180 T01061006
KMYR 051256Z 32010KT 10SM CLR 08/00 A3003 RMK AO2 SLP168 T00830000
KMYR 051156Z 31010KT 10SM CLR 06/01 A3000 RMK AO2 SLP158 T00610006 10083 20044 53032
KMYR 051056Z 30007KT 10SM CLR 05/01 A2996 RMK AO2 SLP144 T00500006
KMYR 050956Z AUTO 29007KT 10SM CLR 07/01 A2993 RMK AO2 SLP134 T00670011
KMYR 050856Z AUTO 28007KT 10SM CLR 07/01 A2990 RMK AO2 SLP125 T00720011 53013
KMYR 050756Z AUTO 26008KT 10SM CLR 08/01 A2988 RMK AO2 SLP117 T00780011
KMYR 050656Z AUTO 27007KT 10SM CLR 08/02 A2987 RMK AO2 SLP115 T00780017
KMYR 050556Z AUTO 27007KT 10SM CLR 08/02 A2986 RMK AO2 SLP113 T00830017 10117 20083 53008
KMYR 050456Z AUTO 26010KT 10SM CLR 10/02 A2986 RMK AO2 SLP110 T01000017 401500033
KMYR 050356Z AUTO 26012KT 10SM CLR 12/01 A2985 RMK AO2 SLP106 T01170011
KMYR 050256Z 25008KT 10SM CLR 11/02 A2984 RMK AO2 SLP104 T01060017 51011
KMYR 050156Z 24004KT 10SM CLR 09/02 A2983 RMK AO2 SLP102 T00940017
KMYR 050056Z 25006KT 10SM CLR 10/02 A2982 RMK AO2 SLP096 T01000017
KMYR 042356Z 25005KT 10SM CLR 10/01 A2981 RMK AO2 SLP093 T01000011 10150 20100 53018
KMYR 042256Z 25005KT 10SM CLR 12/01 A2978 RMK AO2 SLP085 T01170006
KMYR 042156Z 24006KT 10SM CLR 13/01 A2977 RMK AO2 SLP080 T01280006
KMYR 042056Z 28008KT 10SM CLR 15/00 A2976 RMK AO2 SLP075 T01500000 55001
KMYR 041956Z 24009KT 10SM CLR 15/M01 A2974 RMK AO2 SLP071 T01501011
KMYR 041856Z 26010KT 10SM CLR 14/M01 A2974 RMK AO2 SLP070 T01441011
KMYR 041756Z 29006KT 10SM CLR 13/M01 A2976 RMK AO2 SLP076 T01331011 10133 20033 58023
KMYR 041656Z 31006KT 10SM CLR 12/00 A2979 RMK AO2 SLP088 T01220000
KMYR 041556Z 30009KT 10SM CLR 11/02 A2983 RMK AO2 SLP101 T01060017
KMYR 041456Z 31008KT 10SM CLR 08/03 A2983 RMK AO2 SLP100 T00830028 51014
KMYR 041356Z 28005KT 10SM CLR 06/02 A2981 RMK AO2 SLP095 T00610022